Time;durP1;ratioP1;P1;durP2;ratioP2;P2;SDS_P1;SDS_P2;PMS_P1;PMS_P2;Temp;Humidity;BMP_temperature;BMP_pressure;BME280_temperature;BME280_humidity;BME280_pressure;Samples;Min_cycle;Max_cycle;Signal;HPM_P1;HPM_P2
2022/05/01 00:02:09;;;;;;;4.55;3.13;;;12.40;79.00;;;;;;5121392;27;45310;-81
2022/05/01 00:04:35;;;;;;;5.60;2.60;;;12.40;79.80;;;;;;5123378;27;45500;-82
2022/05/01 00:07:03;;;;;;;5.18;3.05;;;12.40;80.30;;;;;;5128671;27;47938;-82
2022/05/01 00:09:31;;;;;;;7.95;3.22;;;12.30;80.40;;;;;;5127081;27;45222;-81
2022/05/01 00:11:59;;;;;;;4.60;3.05;;;12.30;80.10;;;;;;5126158;27;45682;-81
2022/05/01 00:14:27;;;;;;;4.40;3.20;;;12.40;79.50;;;;;;5125374;27;45316;-81
2022/05/01 00:16:53;;;;;;;8.35;3.40;;;12.30;80.00;;;;;;5129919;27;47638;-81
2022/05/01 00:19:20;;;;;;;5.50;3.60;;;12.20;80.70;;;;;;5122642;27;45444;-81
2022/05/01 00:21:47;;;;;;;5.93;3.35;;;12.20;82.70;;;;;;5119601;27;45402;-81
2022/05/01 00:24:14;;;;;;;6.20;3.63;;;12.30;81.80;;;;;;5129935;27;45389;-81
2022/05/01 00:26:40;;;;;;;21.77;3.83;;;12.20;79.30;;;;;;5127562;27;48373;-81
2022/05/01 00:29:09;;;;;;;6.25;3.53;;;12.20;79.90;;;;;;5122886;27;45237;-81
2022/05/01 00:31:36;;;;;;;6.97;3.30;;;12.20;80.60;;;;;;5128473;27;45277;-81
2022/05/01 00:36:47;;;;;;;5.40;3.53;;;12.30;79.90;;;;;;5121629;27;46155;-82
2022/05/01 00:39:14;;;;;;;6.85;3.60;;;12.30;80.50;;;;;;5123372;27;45467;-81
2022/05/01 00:41:43;;;;;;;6.97;3.22;;;12.10;81.40;;;;;;5128136;27;45140;-82
2022/05/01 00:44:12;;;;;;;4.75;3.22;;;12.10;81.20;;;;;;5130723;27;45372;-82
2022/05/01 00:46:41;;;;;;;4.78;3.13;;;11.90;81.90;;;;;;5128924;27;47065;-81
2022/05/01 00:49:10;;;;;;;6.07;3.33;;;11.90;82.60;;;;;;5119295;27;45436;-81
2022/05/01 00:51:42;;;;;;;6.28;3.50;;;11.90;82.60;;;;;;5128442;27;45180;-81
2022/05/01 00:54:09;;;;;;;4.63;3.20;;;11.80;83.50;;;;;;5119841;27;45412;-81
2022/05/01 00:56:40;;;;;;;7.28;4.22;;;11.80;83.50;;;;;;5118859;27;47011;-81
2022/05/01 00:59:07;;;;;;;5.30;3.33;;;11.80;83.00;;;;;;5127401;27;45605;-81
2022/05/01 01:01:36;;;;;;;4.28;3.20;;;11.80;83.10;;;;;;5124497;27;45388;-82
2022/05/01 01:04:03;;;;;;;4.95;3.65;;;11.70;83.60;;;;;;5129665;27;45198;-82
2022/05/01 01:06:30;;;;;;;6.30;3.58;;;11.80;83.10;;;;;;5128686;27;46588;-81
2022/05/01 01:08:57;;;;;;;5.28;3.90;;;11.80;83.10;;;;;;5120765;27;45542;-81
2022/05/01 01:11:24;;;;;;;4.22;3.03;;;11.80;83.20;;;;;;5124401;27;45280;-81
2022/05/01 01:13:51;;;;;;;7.47;3.30;;;11.90;82.40;;;;;;5117697;27;46247;-81
2022/05/01 01:16:18;;;;;;;3.60;2.88;;;11.80;82.90;;;;;;5108676;27;45737;-81
2022/05/01 01:18:47;;;;;;;4.93;3.28;;;11.70;84.00;;;;;;5121922;27;45198;-81
2022/05/01 01:21:15;;;;;;;4.78;3.35;;;11.80;83.80;;;;;;5127949;27;45245;-81
2022/05/01 01:23:43;;;;;;;4.13;3.33;;;11.80;83.90;;;;;;5124009;27;45156;-82
2022/05/01 01:26:12;;;;;;;5.90;4.13;;;11.80;85.70;;;;;;5118492;27;45679;-81
2022/05/01 01:28:41;;;;;;;11.75;3.95;;;11.80;84.90;;;;;;5108989;27;45535;-81
2022/05/01 01:33:58;;;;;;;7.05;4.05;;;12.00;84.10;;;;;;5117074;27;45300;-82
2022/05/01 01:36:28;;;;;;;4.40;3.60;;;11.90;84.60;;;;;;5116245;27;48114;-81
2022/05/01 01:38:55;;;;;;;7.90;3.97;;;11.90;84.40;;;;;;5122548;27;45348;-81
2022/05/01 01:41:23;;;;;;;8.02;4.40;;;12.00;84.10;;;;;;5123058;27;45378;-82
2022/05/01 01:43:50;;;;;;;6.55;3.90;;;12.00;84.20;;;;;;5111931;27;45445;-81
2022/05/01 01:46:17;;;;;;;6.50;4.28;;;11.90;85.80;;;;;;5125275;27;46322;-81
2022/05/01 01:48:46;;;;;;;7.38;4.00;;;11.90;84.90;;;;;;5127424;27;45371;-82
2022/05/01 01:51:13;;;;;;;8.45;4.70;;;11.90;84.50;;;;;;5125307;27;45206;-81
2022/05/01 01:53:42;;;;;;;7.63;3.97;;;11.80;84.40;;;;;;5117013;27;45335;-81
2022/05/01 01:56:09;;;;;;;10.50;4.70;;;11.80;84.80;;;;;;5125739;27;46271;-81
2022/05/01 01:58:37;;;;;;;6.82;4.30;;;11.70;85.50;;;;;;5111007;27;45258;-81
2022/05/01 02:01:05;;;;;;;6.85;4.40;;;11.80;85.20;;;;;;5119434;27;45240;-83
2022/05/01 02:03:33;;;;;;;8.50;4.78;;;11.70;85.60;;;;;;5123811;27;45607;-84
2022/05/01 02:06:00;;;;;;;6.13;4.15;;;11.80;86.20;;;;;;5124373;27;45470;-84
2022/05/01 02:08:27;;;;;;;7.38;4.47;;;11.80;85.30;;;;;;5123639;27;45112;-83
2022/05/01 02:10:55;;;;;;;6.80;4.25;;;11.70;84.00;;;;;;5128292;27;45381;-86
2022/05/01 02:13:22;;;;;;;5.15;3.90;;;11.60;85.10;;;;;;5124379;27;45705;-85
2022/05/01 02:15:49;;;;;;;6.05;4.28;;;11.60;85.20;;;;;;5128279;27;47392;-85
2022/05/01 02:18:16;;;;;;;5.97;4.45;;;11.50;83.70;;;;;;5122757;27;45340;-84
2022/05/01 02:23:30;;;;;;;12.25;6.72;;;11.90;82.00;;;;;;5115091;27;45313;-82
2022/05/01 02:25:58;;;;;;;9.15;5.97;;;11.70;85.10;;;;;;5114323;27;46471;-80
2022/05/01 02:28:25;;;;;;;8.05;6.18;;;11.60;85.90;;;;;;5121476;27;45565;-80
2022/05/01 02:30:52;;;;;;;8.30;5.55;;;11.50;86.50;;;;;;5123235;27;46296;-81
2022/05/01 02:33:20;;;;;;;10.52;5.53;;;11.40;87.00;;;;;;5119907;27;45521;-82
2022/05/01 02:35:48;;;;;;;8.48;5.82;;;11.50;86.80;;;;;;5122138;27;47302;-81
2022/05/01 02:38:15;;;;;;;11.68;6.05;;;11.40;87.10;;;;;;5113423;27;45542;-81
2022/05/01 02:40:42;;;;;;;13.80;6.80;;;11.40;88.20;;;;;;5123011;27;45430;-81
2022/05/01 02:43:11;;;;;;;12.07;6.90;;;11.50;88.20;;;;;;5124171;27;45457;-82
2022/05/01 02:45:38;;;;;;;10.45;6.18;;;11.50;87.40;;;;;;5122599;27;45458;-81
2022/05/01 02:48:05;;;;;;;7.72;5.60;;;11.40;88.30;;;;;;5117835;27;46522;-81
2022/05/01 02:50:32;;;;;;;7.47;5.13;;;11.40;90.00;;;;;;5122442;27;45356;-81
2022/05/01 02:52:59;;;;;;;9.48;5.40;;;11.40;89.80;;;;;;5123078;27;45383;-82
2022/05/01 02:55:26;;;;;;;8.43;5.72;;;11.50;89.70;;;;;;5119286;27;47615;-83
2022/05/01 02:57:54;;;;;;;8.43;5.15;;;11.50;90.20;;;;;;5122571;27;45386;-83
2022/05/01 03:00:22;;;;;;;10.57;6.35;;;11.50;90.30;;;;;;5122026;27;45380;-83
2022/05/01 03:02:49;;;;;;;8.50;5.95;;;11.60;90.10;;;;;;5126911;27;45444;-83
2022/05/01 03:05:17;;;;;;;8.77;5.43;;;11.50;90.30;;;;;;5122362;27;46419;-83
2022/05/01 03:07:44;;;;;;;11.60;6.65;;;11.60;90.20;;;;;;5126630;27;45171;-83
2022/05/01 03:10:11;;;;;;;8.57;5.82;;;11.50;90.00;;;;;;5120690;27;45537;-83
2022/05/01 03:12:39;;;;;;;11.63;5.28;;;11.70;90.00;;;;;;5124983;27;45290;-83
2022/05/01 03:15:07;;;;;;;8.10;5.00;;;11.60;90.00;;;;;;5121201;27;48407;-83
2022/05/01 03:23:01;;;;;;;7.70;5.32;;;11.70;90.00;;;;;;5128366;27;45259;-83
2022/05/01 03:25:28;;;;;;;7.80;5.68;;;11.60;90.40;;;;;;5124460;27;48126;-83
2022/05/01 03:27:55;;;;;;;12.30;6.13;;;11.60;90.20;;;;;;5124168;27;45271;-83
2022/05/01 03:30:22;;;;;;;10.98;5.47;;;11.60;90.10;;;;;;5121241;27;45153;-83
2022/05/01 03:32:52;;;;;;;7.97;5.30;;;11.50;90.80;;;;;;5121257;27;45381;-83
2022/05/01 03:35:19;;;;;;;8.02;5.32;;;11.60;90.30;;;;;;5123245;27;45254;-83
2022/05/01 03:37:46;;;;;;;14.85;6.03;;;11.70;90.80;;;;;;5125949;27;45531;-83
2022/05/01 03:40:15;;;;;;;10.10;6.07;;;11.60;90.20;;;;;;5126723;27;45421;-83
2022/05/01 03:42:42;;;;;;;14.23;6.15;;;11.70;90.90;;;;;;5122537;27;45356;-83
2022/05/01 03:45:09;;;;;;;8.07;5.18;;;11.60;90.80;;;;;;5124800;27;46264;-83
2022/05/01 03:47:37;;;;;;;7.60;4.93;;;11.60;90.70;;;;;;5127055;27;45932;-83
2022/05/01 03:50:06;;;;;;;11.15;4.78;;;11.70;90.40;;;;;;5116188;27;45258;-83
2022/05/01 03:52:34;;;;;;;8.52;5.72;;;11.70;90.40;;;;;;5127096;27;45372;-83
2022/05/01 03:55:01;;;;;;;9.13;5.10;;;11.70;90.50;;;;;;5121405;27;48379;-83
2022/05/01 03:57:28;;;;;;;10.40;5.65;;;11.70;90.60;;;;;;5126451;27;45574;-83
2022/05/01 03:59:54;;;;;;;7.10;5.38;;;11.80;90.70;;;;;;5126280;27;45249;-83
2022/05/01 04:02:21;;;;;;;7.43;5.20;;;11.70;90.80;;;;;;5125170;27;45194;-83
2022/05/01 04:04:48;;;;;;;9.73;6.10;;;11.70;90.80;;;;;;5124662;27;47435;-83
2022/05/01 04:07:17;;;;;;;8.25;4.97;;;11.80;90.90;;;;;;5123068;27;45373;-83
2022/05/01 04:09:44;;;;;;;8.43;5.38;;;11.90;90.70;;;;;;5124256;27;45371;-83
2022/05/01 04:12:11;;;;;;;6.88;5.43;;;11.80;91.20;;;;;;5124246;27;45221;-83
2022/05/01 04:14:38;;;;;;;8.63;5.00;;;11.70;91.00;;;;;;5122810;27;46454;-83
2022/05/01 04:17:05;;;;;;;9.93;6.20;;;11.70;91.20;;;;;;5126209;27;45280;-81
2022/05/01 04:19:32;;;;;;;7.28;5.43;;;11.80;91.00;;;;;;5117952;27;45254;-81
2022/05/01 04:21:59;;;;;;;9.23;5.80;;;11.70;91.20;;;;;;5121485;27;45446;-81
2022/05/01 04:24:28;;;;;;;7.65;6.13;;;11.70;91.20;;;;;;5124756;27;47933;-82
2022/05/01 04:26:55;;;;;;;7.75;5.57;;;11.60;91.80;;;;;;5121956;27;45334;-81
2022/05/01 04:29:37;;;;;;;8.52;6.18;;;11.70;91.50;;;;;;5114894;27;45402;-81
2022/05/01 04:32:06;;;;;;;8.15;6.20;;;11.70;91.60;;;;;;5126035;27;45485;-81
2022/05/01 04:34:33;;;;;;;9.07;5.97;;;11.70;91.80;;;;;;5120851;27;46614;-81
2022/05/01 04:37:00;;;;;;;7.88;5.88;;;11.70;92.00;;;;;;5125409;27;45217;-81
2022/05/01 04:39:28;;;;;;;9.60;6.05;;;11.70;92.20;;;;;;5118468;27;45324;-81
2022/05/01 04:41:55;;;;;;;8.18;5.78;;;11.60;92.00;;;;;;5126126;27;45311;-81
2022/05/01 04:44:22;;;;;;;8.73;5.95;;;11.70;91.80;;;;;;5121270;27;47392;-81
2022/05/01 04:46:50;;;;;;;8.10;5.22;;;11.60;92.00;;;;;;5127473;27;45310;-81
2022/05/01 04:49:18;;;;;;;9.68;6.13;;;11.60;92.30;;;;;;5126471;27;45179;-81
2022/05/01 04:51:45;;;;;;;9.05;6.03;;;11.60;92.30;;;;;;5118315;27;45247;-80
2022/05/01 04:54:12;;;;;;;8.27;5.93;;;11.60;92.50;;;;;;5121858;27;47681;-83
2022/05/01 04:59:25;;;;;;;8.70;5.88;;;11.70;92.60;;;;;;5117076;27;45154;-82
2022/05/01 05:01:51;;;;;;;8.48;5.90;;;11.70;92.50;;;;;;5130142;27;45294;-81
2022/05/01 05:04:18;;;;;;;8.27;5.80;;;11.80;92.10;;;;;;5129287;27;46162;-82
2022/05/01 05:06:45;;;;;;;12.85;5.75;;;11.70;92.10;;;;;;5126375;27;45295;-82
2022/05/01 05:11:57;;;;;;;10.73;6.32;;;11.80;91.90;;;;;;5125358;27;45623;-82
2022/05/01 05:14:24;;;;;;;8.02;5.50;;;11.70;92.30;;;;;;5122804;27;47047;-82
2022/05/01 05:16:51;;;;;;;9.80;6.20;;;11.80;92.30;;;;;;5126852;27;45635;-82
2022/05/01 05:19:18;;;;;;;8.93;6.00;;;11.90;91.90;;;;;;5128046;27;45296;-82
2022/05/01 05:21:45;;;;;;;8.98;5.80;;;12.00;91.30;;;;;;5129259;27;45434;-82
2022/05/01 05:24:12;;;;;;;8.00;6.30;;;12.00;91.30;;;;;;5126639;27;46263;-82
2022/05/01 05:26:39;;;;;;;8.95;5.85;;;12.00;91.30;;;;;;5125807;27;45285;-82
2022/05/01 05:29:08;;;;;;;8.55;5.70;;;12.00;91.30;;;;;;5125136;27;45498;-82
2022/05/01 05:31:35;;;;;;;7.38;5.28;;;11.90;91.70;;;;;;5127855;27;45389;-81
2022/05/01 05:34:02;;;;;;;10.20;5.95;;;12.00;91.40;;;;;;5123520;27;48791;-82
2022/05/01 05:36:29;;;;;;;7.93;5.97;;;11.90;91.60;;;;;;5127416;27;45214;-82
2022/05/01 05:38:56;;;;;;;8.43;5.15;;;12.00;91.60;;;;;;5126291;27;45317;-82
2022/05/01 05:41:23;;;;;;;8.02;5.60;;;12.20;91.40;;;;;;5123022;27;45522;-82
2022/05/01 05:43:49;;;;;;;11.65;6.43;;;12.10;91.30;;;;;;5128193;27;46205;-82
2022/05/01 05:46:18;;;;;;;8.35;5.68;;;12.00;91.30;;;;;;5130122;27;45242;-82
2022/05/01 05:48:45;;;;;;;12.35;6.55;;;12.00;92.20;;;;;;5121086;27;45776;-83
2022/05/01 05:51:11;;;;;;;8.55;5.40;;;12.00;92.30;;;;;;5129047;27;45224;-83
2022/05/01 05:53:38;;;;;;;7.38;5.63;;;12.00;92.30;;;;;;5127160;27;47424;-83
2022/05/01 05:56:05;;;;;;;9.52;6.00;;;12.00;92.30;;;;;;5129686;27;45510;-82
2022/05/01 05:58:32;;;;;;;10.07;6.13;;;12.00;92.30;;;;;;5125806;27;45280;-83
2022/05/01 06:00:59;;;;;;;8.25;6.22;;;12.10;92.20;;;;;;5129944;27;45206;-83
2022/05/01 06:03:27;;;;;;;9.02;6.20;;;12.10;91.90;;;;;;5129393;27;46230;-83
2022/05/01 06:05:54;;;;;;;10.38;5.93;;;12.10;92.30;;;;;;5117246;27;46402;-83
2022/05/01 06:08:21;;;;;;;8.43;5.85;;;12.20;92.30;;;;;;5122002;27;45601;-83
2022/05/01 06:10:48;;;;;;;8.60;6.07;;;12.20;92.80;;;;;;5130305;27;45186;-83
2022/05/01 06:13:14;;;;;;;9.85;6.65;;;12.30;92.30;;;;;;5127928;27;46639;-83
2022/05/01 06:15:43;;;;;;;10.07;6.55;;;12.30;92.20;;;;;;5127073;27;45286;-82
2022/05/01 06:18:12;;;;;;;9.35;5.72;;;12.30;92.10;;;;;;5123191;27;45368;-82
2022/05/01 06:20:40;;;;;;;9.70;6.10;;;12.40;92.20;;;;;;5123682;27;45441;-83
2022/05/01 06:23:08;;;;;;;10.70;6.13;;;12.40;91.80;;;;;;5124386;27;46314;-82
2022/05/01 06:25:38;;;;;;;9.80;6.28;;;12.40;91.40;;;;;;5126724;27;45378;-83
2022/05/01 06:28:05;;;;;;;10.05;6.43;;;12.50;91.50;;;;;;5109465;27;45396;-83
2022/05/01 06:30:32;;;;;;;6.95;5.22;;;12.50;91.20;;;;;;5122567;27;45487;-83
2022/05/01 06:32:59;;;;;;;9.20;4.75;;;12.50;91.50;;;;;;5126257;27;47080;-83
2022/05/01 06:35:31;;;;;;;7.82;6.00;;;12.50;91.50;;;;;;5124225;27;45353;-83
2022/05/01 06:37:59;;;;;;;8.88;6.38;;;12.60;91.50;;;;;;5123341;27;45292;-83
2022/05/01 06:40:26;;;;;;;7.70;5.68;;;12.50;91.50;;;;;;5114936;27;45214;-81
2022/05/01 06:42:53;;;;;;;11.00;6.32;;;12.50;91.60;;;;;;5117850;27;47094;-83
2022/05/01 06:45:19;;;;;;;10.30;6.07;;;12.60;91.10;;;;;;5123425;27;45978;-82
2022/05/01 06:47:46;;;;;;;8.18;5.20;;;12.60;91.40;;;;;;5122408;27;45387;-83
2022/05/01 06:50:13;;;;;;;7.78;5.45;;;12.70;91.90;;;;;;5124803;27;45507;-83
2022/05/01 06:52:41;;;;;;;8.63;5.55;;;12.70;91.50;;;;;;5122620;27;47070;-83
2022/05/01 06:55:10;;;;;;;11.38;6.55;;;12.70;91.10;;;;;;5124216;27;45349;-82
2022/05/01 06:57:36;;;;;;;8.82;5.97;;;12.60;91.90;;;;;;5130004;27;45274;-82
2022/05/01 07:00:04;;;;;;;7.63;5.07;;;12.60;90.90;;;;;;5121283;27;46563;-82
2022/05/01 07:02:31;;;;;;;11.88;6.72;;;12.70;90.90;;;;;;5129442;27;46948;-83
2022/05/01 07:04:57;;;;;;;9.30;5.82;;;12.80;90.30;;;;;;5123405;27;45178;-84
2022/05/01 07:07:24;;;;;;;10.35;6.53;;;12.80;89.40;;;;;;5118249;27;45373;-84
2022/05/01 07:09:51;;;;;;;10.95;6.53;;;12.80;88.50;;;;;;5121156;27;45340;-84
2022/05/01 07:12:19;;;;;;;7.50;5.50;;;12.80;87.10;;;;;;5120476;27;46476;-83
2022/05/01 07:14:46;;;;;;;9.63;6.20;;;12.90;86.60;;;;;;5122504;27;45427;-83
2022/05/01 07:17:13;;;;;;;7.28;4.78;;;12.90;87.50;;;;;;5122435;27;45368;-84
2022/05/01 07:19:40;;;;;;;10.47;6.63;;;13.00;86.60;;;;;;5118519;27;45256;-83
2022/05/01 07:22:06;;;;;;;9.13;6.13;;;13.20;85.20;;;;;;5121174;27;47729;-83
2022/05/01 07:24:33;;;;;;;12.40;6.53;;;13.10;85.70;;;;;;5111458;27;45436;-83
2022/05/01 07:27:00;;;;;;;9.05;6.35;;;12.90;87.80;;;;;;5121335;27;45355;-85
2022/05/01 07:29:28;;;;;;;9.63;6.53;;;12.90;89.60;;;;;;5123533;27;45579;-83
2022/05/01 07:31:55;;;;;;;8.68;5.80;;;13.10;90.10;;;;;;5119200;27;45629;-84
2022/05/01 07:34:22;;;;;;;8.70;5.97;;;13.20;88.50;;;;;;5123463;27;45516;-82
2022/05/01 07:36:48;;;;;;;8.05;5.30;;;13.20;87.30;;;;;;5123712;27;45461;-83
2022/05/01 07:39:15;;;;;;;12.38;5.82;;;13.10;87.00;;;;;;5119147;27;45543;-82
2022/05/01 07:41:42;;;;;;;10.35;6.70;;;13.10;87.70;;;;;;5123475;27;47233;-84
2022/05/01 07:44:11;;;;;;;13.65;6.32;;;13.00;86.20;;;;;;5128283;27;45333;-84
2022/05/01 07:46:39;;;;;;;8.90;5.95;;;13.10;87.40;;;;;;5117511;27;45813;-84
2022/05/01 07:49:06;;;;;;;11.80;5.60;;;13.10;85.70;;;;;;5124875;27;45563;-84
2022/05/01 07:51:33;;;;;;;13.95;5.80;;;13.20;84.80;;;;;;5123868;27;47249;-85
2022/05/01 07:54:00;;;;;;;7.68;6.10;;;13.30;86.30;;;;;;5123896;27;45458;-84
2022/05/01 07:56:27;;;;;;;6.95;5.38;;;13.40;83.10;;;;;;5121550;27;45468;-83
2022/05/01 07:58:55;;;;;;;9.77;5.97;;;13.20;84.60;;;;;;5121842;27;45385;-82
2022/05/01 08:01:22;;;;;;;8.40;5.93;;;13.30;82.80;;;;;;5124537;27;46616;-83
2022/05/01 08:06:35;;;;;;;10.80;6.95;;;13.40;83.50;;;;;;5117330;27;45460;-83
2022/05/01 08:09:02;;;;;;;10.75;6.75;;;13.30;84.50;;;;;;5126495;27;45171;-84
2022/05/01 08:11:29;;;;;;;11.25;6.43;;;13.30;81.20;;;;;;5123819;27;47323;-82
2022/05/01 08:13:56;;;;;;;11.68;5.45;;;13.40;83.30;;;;;;5121576;27;45241;-82
2022/05/01 08:16:23;;;;;;;6.22;3.88;;;13.40;80.00;;;;;;5119491;27;45186;-82
2022/05/01 08:21:36;;;;;;;14.50;4.40;;;14.60;78.80;;;;;;5113878;27;45613;-81
2022/05/01 08:24:03;;;;;;;16.65;7.30;;;14.50;79.40;;;;;;5110822;27;45651;-84
2022/05/01 08:26:33;;;;;;;13.00;6.68;;;14.10;78.70;;;;;;5116783;27;45184;-84
2022/05/01 08:29:00;;;;;;;16.92;7.75;;;13.80;78.00;;;;;;5116433;27;45168;-83
2022/05/01 08:31:27;;;;;;;14.43;8.18;;;13.70;79.80;;;;;;5127398;27;48390;-85
2022/05/01 08:33:56;;;;;;;12.32;6.35;;;13.70;80.30;;;;;;5121931;27;45410;-83
2022/05/01 08:36:23;;;;;;;11.68;5.93;;;13.70;79.10;;;;;;5129373;27;45193;-83
2022/05/01 08:38:50;;;;;;;12.00;7.60;;;13.90;78.10;;;;;;5127212;27;45221;-84
2022/05/01 08:41:18;;;;;;;11.50;5.70;;;13.90;77.30;;;;;;5129773;27;46356;-83
2022/05/01 08:43:44;;;;;;;11.20;6.45;;;14.10;75.60;;;;;;5124307;27;45453;-84
2022/05/01 08:46:27;;;;;;;11.00;5.97;;;14.00;76.40;;;;;;5114355;27;45590;-86
2022/05/01 08:49:00;;;;;;;19.92;6.10;;;14.00;74.70;;;;;;5125973;27;45191;-83
2022/05/01 08:51:30;;;;;;;11.55;6.93;;;14.00;74.40;;;;;;5117046;27;45568;-84
2022/05/01 08:53:59;;;;;;;9.05;5.30;;;14.10;73.10;;;;;;5122062;27;45533;-81
2022/05/01 08:56:26;;;;;;;15.18;5.90;;;14.90;73.10;;;;;;5124903;27;45542;-84
2022/05/01 08:58:54;;;;;;;10.02;6.25;;;14.50;70.30;;;;;;5118345;27;45569;-84
2022/05/01 09:01:21;;;;;;;11.60;6.15;;;14.30;70.10;;;;;;5117229;27;46636;-83
2022/05/01 09:03:49;;;;;;;10.23;5.90;;;14.40;70.70;;;;;;5120946;27;45247;-84
2022/05/01 09:06:17;;;;;;;15.98;6.03;;;14.20;68.50;;;;;;5124947;27;45595;-84
2022/05/01 09:08:44;;;;;;;13.63;6.00;;;14.10;68.30;;;;;;5129667;27;45202;-85
2022/05/01 09:13:55;;;;;;;13.52;6.70;;;14.30;71.60;;;;;;5112201;27;45320;-84
2022/05/01 09:16:22;;;;;;;11.95;6.40;;;14.60;70.10;;;;;;5121520;27;45414;-84
2022/05/01 09:18:49;;;;;;;11.05;6.78;;;14.40;71.80;;;;;;5108670;27;45223;-84
2022/05/01 09:21:17;;;;;;;15.20;6.72;;;14.40;71.20;;;;;;5119982;27;46661;-84
2022/05/01 09:23:45;;;;;;;9.20;5.80;;;14.30;70.30;;;;;;5126414;27;45384;-84
2022/05/01 09:26:13;;;;;;;10.50;6.35;;;14.40;71.60;;;;;;5111768;27;45357;-84
2022/05/01 09:28:49;;;;;;;15.30;6.53;;;14.40;70.20;;;;;;5113840;27;45539;-83
2022/05/01 09:31:18;;;;;;;14.63;6.47;;;14.50;71.20;;;;;;5125240;27;46248;-84
2022/05/01 09:33:45;;;;;;;8.03;5.00;;;14.30;70.70;;;;;;5120572;27;45939;-84
2022/05/01 09:36:36;;;;;;;6.82;4.40;;;14.50;71.10;;;;;;5128090;27;45631;-81
2022/05/01 09:39:04;;;;;;;10.60;4.90;;;14.90;70.30;;;;;;5122264;27;45581;-81
2022/05/01 09:41:30;;;;;;;9.48;5.32;;;14.90;69.60;;;;;;5122581;27;47446;-81
2022/05/01 09:43:57;;;;;;;11.95;5.88;;;14.90;67.10;;;;;;5123552;27;45247;-82
2022/05/01 09:46:27;;;;;;;12.35;6.72;;;14.90;65.70;;;;;;5116404;27;45380;-82
2022/05/01 09:48:59;;;;;;;13.63;6.60;;;14.70;67.70;;;;;;5120376;27;45356;-82
2022/05/01 09:51:27;;;;;;;9.52;6.30;;;14.60;65.50;;;;;;5120577;27;47337;-82
2022/05/01 09:53:56;;;;;;;9.40;6.15;;;14.50;65.70;;;;;;5119744;27;45515;-82
2022/05/01 09:56:23;;;;;;;11.68;6.30;;;14.50;67.80;;;;;;5123300;27;45274;-82
2022/05/01 09:58:58;;;;;;;12.20;7.30;;;14.60;65.00;;;;;;5122043;27;45473;-82
2022/05/01 10:01:26;;;;;;;12.80;6.68;;;14.60;65.20;;;;;;5127465;27;48239;-83
2022/05/01 10:03:53;;;;;;;10.63;6.53;;;14.60;63.80;;;;;;5116430;27;45512;-83
2022/05/01 10:06:21;;;;;;;19.52;7.82;;;14.50;64.30;;;;;;5124905;27;45418;-82
2022/05/01 10:08:49;;;;;;;11.88;6.32;;;14.50;65.20;;;;;;5119512;27;45177;-82
2022/05/01 10:11:17;;;;;;;11.05;6.68;;;14.50;66.30;;;;;;5126157;27;46282;-82
2022/05/01 10:13:46;;;;;;;9.43;5.90;;;14.50;64.30;;;;;;5125356;27;46580;-82
2022/05/01 10:16:15;;;;;;;10.73;6.68;;;14.60;64.40;;;;;;5128583;27;45292;-82
2022/05/01 10:18:43;;;;;;;9.30;6.53;;;14.60;63.60;;;;;;5127163;27;45472;-82
2022/05/01 10:21:10;;;;;;;13.82;7.05;;;14.60;61.40;;;;;;5127077;27;46474;-82
2022/05/01 10:23:37;;;;;;;10.68;6.55;;;14.50;62.40;;;;;;5126638;27;45308;-82
2022/05/01 10:26:10;;;;;;;10.02;6.95;;;14.50;62.10;;;;;;5118092;27;45276;-82
2022/05/01 10:28:55;;;;;;;8.95;6.20;;;14.50;64.20;;;;;;5118688;27;45360;-82
2022/05/01 10:34:41;;;;;;;11.20;6.88;;;14.70;61.10;;;;;;5117402;27;45431;-81
2022/05/01 10:37:29;;;;;;;11.27;6.32;;;14.80;60.50;;;;;;5124187;27;45310;-82
2022/05/01 10:39:58;;;;;;;9.85;6.70;;;14.80;58.50;;;;;;5127084;27;45313;-82
2022/05/01 10:42:36;;;;;;;12.65;6.78;;;14.70;59.00;;;;;;5128483;27;45432;-83
2022/05/01 10:45:41;;;;;;;14.05;7.43;;;14.70;59.50;;;;;;5128038;27;45238;-83
2022/05/01 10:48:15;;;;;;;10.63;7.45;;;14.80;58.20;;;;;;5109500;27;45641;-83
2022/05/01 10:50:42;;;;;;;8.93;5.90;;;14.80;61.40;;;;;;5107549;27;45718;-83
2022/05/01 10:53:12;;;;;;;11.98;7.53;;;15.00;60.30;;;;;;5110294;27;47931;-83
2022/05/01 10:55:43;;;;;;;10.70;7.13;;;15.10;60.70;;;;;;5128025;27;45253;-83
2022/05/01 10:58:21;;;;;;;11.57;6.90;;;15.00;58.70;;;;;;5129771;27;45252;-83
2022/05/01 11:00:50;;;;;;;9.13;6.35;;;15.00;59.80;;;;;;5129371;27;45152;-83
2022/05/01 11:03:25;;;;;;;13.40;7.55;;;15.10;61.40;;;;;;5127637;27;47232;-83
2022/05/01 11:05:55;;;;;;;13.68;8.18;;;15.00;62.30;;;;;;5124806;27;45164;-83
2022/05/01 11:08:24;;;;;;;10.65;6.97;;;15.10;59.80;;;;;;5128280;27;45333;-83
2022/05/01 11:10:55;;;;;;;11.48;7.47;;;15.20;58.80;;;;;;5127564;27;45171;-83
2022/05/01 11:13:26;;;;;;;13.07;8.32;;;15.20;59.50;;;;;;5127010;27;46712;-83
2022/05/01 11:15:55;;;;;;;13.90;7.78;;;15.20;57.50;;;;;;5127215;27;45339;-82
2022/05/01 11:18:29;;;;;;;12.18;8.77;;;15.10;58.10;;;;;;5115471;27;45246;-82
2022/05/01 11:20:57;;;;;;;11.68;7.93;;;15.10;59.60;;;;;;5124320;27;45227;-82
2022/05/01 11:23:31;;;;;;;14.27;9.23;;;15.20;59.80;;;;;;5129404;27;47437;-82
2022/05/01 11:26:22;;;;;;;10.65;6.82;;;15.20;59.00;;;;;;5129607;27;45191;-82
2022/05/01 11:28:53;;;;;;;10.15;6.63;;;15.20;58.50;;;;;;5087034;27;45288;-82
2022/05/01 11:31:51;;;;;;;10.20;7.05;;;15.50;60.70;;;;;;5124597;27;45187;-82
2022/05/01 11:34:49;;;;;;;12.55;8.27;;;15.50;57.70;;;;;;5128675;27;47905;-81
2022/05/01 11:37:17;;;;;;;11.25;8.25;;;15.60;57.80;;;;;;5111773;27;45450;-82
2022/05/01 11:40:17;;;;;;;14.52;9.32;;;15.50;57.10;;;;;;5127941;27;45244;-81
2022/05/01 11:42:44;;;;;;;12.05;8.25;;;15.60;55.10;;;;;;5128030;27;45509;-83
2022/05/01 11:45:11;;;;;;;12.90;9.20;;;15.50;57.20;;;;;;5126209;27;48308;-84
2022/05/01 11:47:42;;;;;;;10.98;7.85;;;15.40;55.60;;;;;;5112379;27;45246;-84
2022/05/01 11:50:19;;;;;;;12.70;8.60;;;15.50;59.50;;;;;;5119622;27;45264;-84
2022/05/01 11:52:50;;;;;;;13.07;8.20;;;15.60;61.90;;;;;;5124403;27;45258;-83
2022/05/01 11:55:19;;;;;;;12.43;8.50;;;15.50;57.30;;;;;;5134663;27;45252;-82
2022/05/01 12:03:30;;;;;;;12.00;6.82;;;15.40;57.90;;;;;;5132900;27;45196;-84
2022/05/01 12:05:57;;;;;;;14.13;8.68;;;15.50;55.10;;;;;;5132414;27;46953;-83
2022/05/01 12:08:24;;;;;;;16.48;7.63;;;15.50;55.90;;;;;;5125523;27;45220;-83
2022/05/01 12:10:51;;;;;;;12.35;8.43;;;15.60;60.90;;;;;;5114643;27;45176;-83
2022/05/01 12:13:19;;;;;;;11.43;8.32;;;15.60;55.30;;;;;;5123623;27;45501;-83
2022/05/01 12:15:46;;;;;;;12.93;7.47;;;15.60;54.00;;;;;;5130496;27;48430;-83
2022/05/01 12:18:13;;;;;;;11.45;7.95;;;15.60;58.60;;;;;;5131785;27;45152;-83
2022/05/01 12:20:41;;;;;;;11.02;7.47;;;15.70;57.70;;;;;;5127860;27;45863;-83
2022/05/01 12:23:16;;;;;;;10.95;7.78;;;15.80;53.60;;;;;;5132069;27;45559;-84
2022/05/01 12:25:45;;;;;;;11.40;7.93;;;15.80;53.60;;;;;;5132240;27;47584;-83
2022/05/01 12:28:15;;;;;;;9.25;6.22;;;15.80;54.90;;;;;;5130310;27;45199;-83
2022/05/01 12:30:43;;;;;;;13.43;8.30;;;16.10;54.10;;;;;;5131196;27;45170;-83
2022/05/01 12:33:18;;;;;;;11.00;8.43;;;16.10;53.60;;;;;;5132406;27;45182;-83
2022/05/01 12:35:54;;;;;;;12.75;8.40;;;16.00;52.40;;;;;;5130171;27;46221;-83
2022/05/01 12:38:22;;;;;;;8.85;6.38;;;15.80;54.90;;;;;;5129772;27;45188;-83
2022/05/01 12:43:52;;;;;;;8.95;5.82;;;16.00;53.30;;;;;;5127260;27;45152;-82
2022/05/01 12:46:23;;;;;;;11.95;8.50;;;16.10;52.50;;;;;;5130751;27;46627;-83
2022/05/01 12:48:50;;;;;;;9.85;7.50;;;16.10;52.40;;;;;;5136580;27;45237;-83
2022/05/01 12:51:18;;;;;;;14.95;8.95;;;16.10;54.80;;;;;;5129950;27;45154;-82
2022/05/01 12:53:45;;;;;;;12.88;8.93;;;16.00;52.90;;;;;;5128144;27;45473;-82
2022/05/01 12:56:23;;;;;;;9.75;6.55;;;15.90;50.20;;;;;;5130810;27;47120;-83
2022/05/01 12:58:51;;;;;;;13.13;8.55;;;15.90;52.50;;;;;;5129656;27;45308;-82
2022/05/01 13:01:26;;;;;;;9.82;6.68;;;16.00;51.50;;;;;;5131539;27;45281;-82
2022/05/01 13:03:54;;;;;;;9.73;7.03;;;16.00;54.10;;;;;;5130641;27;45252;-82
2022/05/01 13:06:23;;;;;;;7.07;4.72;;;16.10;53.60;;;;;;5123302;27;45456;-82
2022/05/01 13:09:07;;;;;;;8.38;6.00;;;16.10;52.20;;;;;;5128811;27;45185;-82
2022/05/01 13:11:35;;;;;;;12.13;7.15;;;16.50;53.30;;;;;;5131561;27;45190;-82
2022/05/01 13:14:04;;;;;;;9.60;7.13;;;16.40;49.70;;;;;;5127367;27;45191;-82
2022/05/01 13:16:43;;;;;;;9.65;6.22;;;16.40;52.50;;;;;;5128395;27;45955;-83
2022/05/01 13:19:12;;;;;;;9.63;6.93;;;16.30;51.80;;;;;;5116917;27;45832;-82
2022/05/01 13:21:42;;;;;;;8.38;5.60;;;16.30;49.40;;;;;;5130331;27;45173;-82
2022/05/01 13:24:12;;;;;;;9.60;6.45;;;16.30;50.80;;;;;;5129436;27;45330;-83
2022/05/01 13:26:39;;;;;;;8.80;5.68;;;16.60;53.60;;;;;;5131309;27;46117;-82
2022/05/01 13:29:08;;;;;;;10.77;6.38;;;16.70;52.00;;;;;;5128542;27;45448;-82
2022/05/01 13:31:35;;;;;;;13.07;6.43;;;16.80;51.10;;;;;;5129462;27;45174;-82